createdAt,value
2019-04-20T00:00:51.500Z,6.80
2019-04-20T00:05:43.984Z,8.17
2019-04-20T00:10:51.355Z,9.67
2019-04-20T00:15:35.134Z,7.90
2019-04-20T00:20:33.994Z,10.77
2019-04-20T00:25:52.237Z,9.07
2019-04-20T00:30:54.429Z,7.43
2019-04-20T00:35:34.272Z,9.67
2019-04-20T00:40:29.041Z,7.27
2019-04-20T00:45:29.625Z,7.17
2019-04-20T00:50:34.306Z,6.63
2019-04-20T00:55:17.055Z,8.03
2019-04-20T01:00:31.334Z,9.03
2019-04-20T01:05:27.612Z,8.47
2019-04-20T01:10:15.204Z,7.50
2019-04-20T01:15:16.903Z,7.80
2019-04-20T01:20:07.113Z,9.10
2019-04-20T01:25:09.918Z,8.93
2019-04-20T01:30:07.119Z,9.67
2019-04-20T01:35:04.499Z,9.83
2019-04-20T01:39:55.160Z,10.40
2019-04-20T01:44:50.813Z,19.13
2019-04-20T01:49:48.625Z,24.33
2019-04-20T01:54:56.393Z,44.70
2019-04-20T01:59:51.709Z,44.70
2019-04-20T02:04:49.284Z,78.97
2019-04-20T02:09:49.892Z,76.63
2019-04-20T02:14:45.401Z,75.70
2019-04-20T02:19:57.517Z,70.43
2019-04-20T02:24:32.389Z,73.67
2019-04-20T02:30:06.482Z,51.30
2019-04-20T02:34:59.276Z,56.83
2019-04-20T02:40:05.560Z,55.63
2019-04-20T02:45:11.201Z,50.60
2019-04-20T02:54:54.984Z,54.17
2019-04-20T03:00:00.523Z,44.53
2019-04-20T03:04:28.330Z,40.83
2019-04-20T03:09:33.020Z,41.07
2019-04-20T03:14:22.805Z,39.70
2019-04-20T03:19:21.974Z,31.93
2019-04-20T03:24:26.757Z,29.93
2019-04-20T03:29:15.930Z,27.07
2019-04-20T03:34:50.468Z,22.87
2019-04-20T03:39:12.696Z,20.37
2019-04-20T03:43:54.167Z,16.93
2019-04-20T03:49:05.918Z,16.07
2019-04-20T03:54:20.217Z,14.23
2019-04-20T03:59:34.874Z,14.50
2019-04-20T04:04:38.257Z,13.53
2019-04-20T04:09:28.659Z,14.73
2019-04-20T04:14:13.604Z,15.70
2019-04-20T04:19:16.431Z,16.20
2019-04-20T04:24:17.017Z,14.60
2019-04-20T04:29:27.346Z,17.33
2019-04-20T04:34:19.276Z,17.53
2019-04-20T04:39:17.795Z,17.97
2019-04-20T04:44:09.918Z,16.37
2019-04-20T04:48:52.552Z,16.00
2019-04-20T04:53:56.234Z,16.13
2019-04-20T04:58:42.750Z,15.43
2019-04-20T05:04:02.816Z,14.97
2019-04-20T05:08:43.068Z,14.60
2019-04-20T05:13:42.879Z,12.70
2019-04-20T05:18:55.304Z,17.43
2019-04-20T05:23:41.447Z,13.43
2019-04-20T05:28:37.135Z,16.93
2019-04-20T05:33:34.416Z,11.03
2019-04-20T05:38:52.050Z,15.23
2019-04-20T05:43:41.196Z,11.07
2019-04-20T05:48:48.898Z,11.43
2019-04-20T05:53:39.831Z,10.60
2019-04-20T05:58:34.402Z,11.83
2019-04-20T06:03:35.317Z,11.33
2019-04-20T06:08:39.063Z,10.83
2019-04-20T06:13:43.207Z,11.17
2019-04-20T06:18:45.921Z,13.63
2019-04-20T06:24:02.502Z,11.63
2019-04-20T06:28:51.868Z,16.23
2019-04-20T06:34:25.901Z,11.87
2019-04-20T06:39:17.478Z,10.50
2019-04-20T06:44:21.564Z,11.53
2019-04-20T06:49:13.457Z,11.27
2019-04-20T06:53:53.959Z,11.43
2019-04-20T06:59:08.336Z,15.27
2019-04-20T07:04:10.736Z,12.63
2019-04-20T07:09:00.341Z,15.30
2019-04-20T07:13:41.292Z,11.03
2019-04-20T07:19:09.456Z,12.87
2019-04-20T07:24:03.397Z,10.50
2019-04-20T07:29:00.446Z,10.67
2019-04-20T07:33:56.833Z,12.30
2019-04-20T07:38:54.827Z,15.43
2019-04-20T07:44:01.167Z,12.50
2019-04-20T07:48:48.023Z,9.30
2019-04-20T07:53:37.956Z,9.90
2019-04-20T07:58:29.490Z,9.78
2019-04-20T08:03:44.168Z,9.93
2019-04-20T08:08:32.736Z,8.33
2019-04-20T08:13:39.121Z,8.87
2019-04-20T08:18:31.074Z,9.67
2019-04-20T08:23:29.895Z,8.53
2019-04-20T08:28:16.728Z,8.97
2019-04-20T08:33:28.074Z,9.50
2019-04-20T08:38:52.781Z,8.97
2019-04-20T08:43:32.691Z,9.83
2019-04-20T08:48:18.939Z,10.53
2019-04-20T08:57:49.255Z,8.33
2019-04-20T09:02:51.670Z,8.15
2019-04-20T09:07:53.585Z,7.20
2019-04-20T09:12:55.827Z,12.03
2019-04-20T09:17:46.640Z,7.80
2019-04-20T09:23:02.496Z,6.90
2019-04-20T09:28:20.060Z,7.10
2019-04-20T09:33:43.946Z,5.65
2019-04-20T09:38:39.331Z,5.05
2019-04-20T09:43:47.472Z,5.35
2019-04-20T09:48:53.609Z,5.53
2019-04-20T09:53:50.594Z,7.28
2019-04-20T09:59:01.096Z,10.48
2019-04-20T10:03:40.871Z,6.70
2019-04-20T10:08:44.297Z,6.92
2019-04-20T10:13:32.277Z,8.60
2019-04-20T10:18:42.665Z,9.48
2019-04-20T10:23:32.511Z,5.35
2019-04-20T10:28:27.693Z,5.60
2019-04-20T10:33:23.680Z,5.37
2019-04-20T10:38:25.525Z,9.58
2019-04-20T10:43:21.777Z,5.67
2019-04-20T10:48:17.357Z,5.05
2019-04-20T10:53:12.178Z,5.53
2019-04-20T10:58:07.429Z,7.47
2019-04-20T11:03:02.251Z,4.80
2019-04-20T11:07:57.072Z,5.05
2019-04-20T11:12:52.519Z,9.13
2019-04-20T11:17:49.117Z,6.55
2019-04-20T11:22:44.354Z,4.85
2019-04-20T11:27:40.404Z,4.78
2019-04-20T11:32:36.043Z,5.28
2019-04-20T11:37:31.112Z,4.83
2019-04-20T11:42:27.724Z,4.42
2019-04-20T11:47:22.463Z,5.85
2019-04-20T11:52:33.293Z,6.53
2019-04-20T11:57:26.862Z,5.97
2019-04-20T12:02:44.380Z,4.85
2019-04-20T12:07:51.438Z,4.42
2019-04-20T12:12:49.404Z,4.12
2019-04-20T12:17:43.925Z,4.85
2019-04-20T12:22:42.126Z,4.28
2019-04-20T12:27:41.092Z,4.92
2019-04-20T12:32:39.233Z,4.05
2019-04-20T12:37:31.322Z,4.33
2019-04-20T12:42:26.262Z,4.05
2019-04-20T12:47:21.654Z,6.03
2019-04-20T12:52:16.770Z,4.20
2019-04-20T12:57:11.681Z,3.95
2019-04-20T13:02:09.157Z,5.53
2019-04-20T13:07:05.834Z,4.83
2019-04-20T13:12:13.882Z,4.37
2019-04-20T13:17:10.341Z,4.53
2019-04-20T13:22:05.467Z,4.10
2019-04-20T13:27:00.681Z,6.20
2019-04-20T13:31:56.789Z,5.00
2019-04-20T13:36:52.514Z,4.92
2019-04-20T13:42:02.400Z,4.60
2019-04-20T13:46:45.062Z,6.97
2019-04-20T13:51:41.059Z,5.12
2019-04-20T13:56:37.642Z,4.97
2019-04-20T14:01:54.996Z,6.65
2019-04-20T14:06:51.696Z,5.17
2019-04-20T14:11:47.490Z,4.95
2019-04-20T14:16:43.076Z,4.75
2019-04-20T14:21:38.467Z,8.85
2019-04-20T14:26:36.105Z,4.05
2019-04-20T14:31:30.086Z,5.08
2019-04-20T14:36:24.977Z,6.22
2019-04-20T14:41:20.198Z,5.33
2019-04-20T14:46:15.175Z,7.75
2019-04-20T14:51:10.069Z,5.17
2019-04-20T14:56:05.398Z,5.30
2019-04-20T15:01:04.812Z,5.67
2019-04-20T15:06:03.062Z,4.97
2019-04-20T15:10:58.725Z,6.28
2019-04-20T15:15:54.855Z,5.53
2019-04-20T15:20:53.264Z,7.25
2019-04-20T15:25:48.655Z,6.22
2019-04-20T15:30:44.492Z,7.58
2019-04-20T15:35:40.084Z,7.22
2019-04-20T15:40:35.264Z,9.00
2019-04-20T15:45:31.454Z,6.97
2019-04-20T15:50:29.807Z,6.20
2019-04-20T15:55:32.050Z,6.30
2019-04-20T16:00:22.879Z,6.70
2019-04-20T16:05:47.171Z,6.80
2019-04-20T16:10:43.337Z,5.72
2019-04-20T16:15:38.284Z,7.05
2019-04-20T16:20:46.028Z,6.42
2019-04-20T16:25:35.380Z,7.20
2019-04-20T16:30:31.810Z,8.23
2019-04-20T16:35:26.703Z,6.03
2019-04-20T16:40:23.304Z,9.95
2019-04-20T16:45:19.129Z,9.55
2019-04-20T16:50:15.017Z,8.10
2019-04-20T16:55:11.758Z,6.00
2019-04-20T17:00:09.334Z,8.75
2019-04-20T17:05:07.444Z,7.10
2019-04-20T17:10:04.136Z,7.22
2019-04-20T17:14:59.329Z,8.18
2019-04-20T17:19:55.391Z,9.58
2019-04-20T17:24:51.503Z,6.83
2019-04-20T17:30:01.151Z,8.08
2019-04-20T17:35:07.711Z,6.60
2019-04-20T17:40:11.202Z,11.73
2019-04-20T17:45:02.170Z,11.50
2019-04-20T17:50:05.296Z,8.63
2019-04-20T17:54:51.563Z,7.60
2019-04-20T18:00:03.052Z,9.03
2019-04-20T18:05:25.819Z,7.57
2019-04-20T18:10:17.605Z,7.97
2019-04-20T18:15:16.825Z,8.00
2019-04-20T18:19:56.920Z,8.10
2019-04-20T18:25:19.235Z,9.87
2019-04-20T18:30:10.783Z,7.97
2019-04-20T18:35:08.534Z,16.07
2019-04-20T18:40:10.745Z,11.03
2019-04-20T18:45:17.289Z,10.90
2019-04-20T18:50:09.373Z,11.57
2019-04-20T18:54:55.622Z,10.37
2019-04-20T18:59:54.703Z,10.17
2019-04-20T19:04:48.256Z,12.90
2019-04-20T19:09:43.193Z,13.53
2019-04-20T19:15:05.015Z,13.17
2019-04-20T19:19:59.659Z,14.83
2019-04-20T19:24:53.872Z,10.87
2019-04-20T19:29:56.370Z,23.53
2019-04-20T19:34:58.487Z,10.47
2019-04-20T19:39:54.678Z,9.40
2019-04-20T19:44:53.897Z,12.30
2019-04-20T19:49:45.096Z,12.70
2019-04-20T19:54:50.712Z,10.17
2019-04-20T19:59:35.681Z,16.73
2019-04-20T20:04:25.871Z,10.50
2019-04-20T20:09:21.877Z,10.17
2019-04-20T20:14:24.686Z,15.70
2019-04-20T20:19:29.568Z,11.37
2019-04-20T20:24:13.984Z,13.83
2019-04-20T20:29:17.115Z,11.40
2019-04-20T20:34:12.926Z,13.60
2019-04-20T20:39:12.338Z,10.70
2019-04-20T20:44:07.034Z,14.87
2019-04-20T20:49:11.745Z,12.47
2019-04-20T20:53:59.849Z,10.60
2019-04-20T20:59:00.727Z,13.37
2019-04-20T21:03:49.915Z,11.23
2019-04-20T21:08:48.693Z,15.93
2019-04-20T21:13:45.218Z,12.70
2019-04-20T21:18:55.649Z,15.67
2019-04-20T21:23:48.019Z,13.10
2019-04-20T21:28:39.732Z,15.60
2019-04-20T21:33:37.839Z,12.23
2019-04-20T21:38:35.892Z,16.50
2019-04-20T21:43:34.783Z,15.00
2019-04-20T21:48:39.205Z,15.97
2019-04-20T21:53:27.924Z,13.87
2019-04-20T21:58:27.159Z,10.43
2019-04-20T22:03:18.438Z,11.03
2019-04-20T22:08:16.151Z,12.60
2019-04-20T22:13:10.073Z,11.50
2019-04-20T22:18:12.268Z,12.57
2019-04-20T22:23:16.921Z,10.67
2019-04-20T22:28:02.358Z,11.47
2019-04-20T22:33:04.000Z,10.33
2019-04-20T22:38:12.575Z,12.97
2019-04-20T22:43:06.536Z,10.87
2019-04-20T22:48:07.070Z,12.53
2019-04-20T22:53:15.204Z,14.10
2019-04-20T22:58:04.663Z,10.90
2019-04-20T23:02:52.226Z,17.00
2019-04-20T23:07:48.616Z,11.20
2019-04-20T23:12:46.932Z,10.50
2019-04-20T23:17:45.019Z,12.00
2019-04-20T23:22:40.885Z,10.30
2019-04-20T23:27:35.240Z,11.53
2019-04-20T23:32:31.936Z,10.77
2019-04-20T23:37:31.552Z,10.37
2019-04-20T23:42:34.903Z,12.43
2019-04-20T23:47:52.388Z,10.33
2019-04-20T23:53:08.690Z,10.90
2019-04-20T23:57:39.842Z,11.00
